Flight Track Log - Related Links

Times and Time Zones

All times are in EDT time to prevent confusion due to time zone crossing. See the UPS1337 flight status page for this flight to view local times or setup timezone preferences in your user account.

Time Position Orientation Groundspeed Altitude Reporting Facility
EDT Latitude Longitude Course Direction KTS MPH feet Rate Location/Type
Mon 09:39:58 PM 27.9000 -82.6833 180° South 168 193 800  Level Tampa TRACON
Mon 09:41:10 PM 27.8333 -82.6833 180° South 185 213 3,800 2,800 Climbing Tampa TRACON
Mon 09:42:28 PM 27.8667 -82.7333 307° West 240 276 7,800 2,524 Climbing Tampa TRACON
Mon 09:48:06 PM 28.4342 -82.6064 North 446 513 21,300 2,357 Climbing FlightAware ADS-B
Mon 09:49:00 PM 28.5477 -82.6031 North 460 529 23,200 2,093 Climbing FlightAware ADS-B
Mon 09:49:32 PM 28.5943 -82.6017 North 465 535 24,300 1,817 Climbing FlightAware ADS-B
Mon 09:50:49 PM 28.7855 -82.5959 North 484 557 26,500 1,956 Climbing FlightAware ADS-B
Mon 09:52:33 PM 29.0189 -82.5888 North 475 547 30,200 1,375 Climbing FlightAware ADS-B
Mon 09:56:12 PM 29.4894 -82.5744 North 441 507 33,900 976 Climbing FlightAware ADS-B
Mon 09:57:28 PM 29.6331 -82.5700 North 448 516 35,000 291 Climbing FlightAware ADS-B
Mon 09:59:59 PM 29.9548 -82.5597 North 434 499 35,000  Level FlightAware ADS-B
Mon 10:00:40 PM 30.0299 -82.5573 North 436 502 35,000  Level FlightAware ADS-B
Mon 10:01:41 PM 30.1592 -82.5530 North 438 504 35,000  Level FlightAware ADS-B
Mon 10:02:17 PM 30.2354 -82.5506 North 437 503 35,000 -50 Level FlightAware ADS-B
Mon 10:03:40 PM 30.3956 -82.5481 North 435 501 34,900  Descending Jacksonville Center
Mon 10:04:23 PM 30.4904 -82.5424 North 440 506 35,000 100 Climbing FlightAware ADS-B
Mon 10:04:40 PM 30.4917 -82.5431 North 440 506 35,000 -78 Level Jacksonville Center
Mon 10:05:40 PM 30.6253 -82.5425 360° North 440 506 34,900  Descending Jacksonville Center
Mon 10:06:40 PM 30.7506 -82.5372 North 440 506 35,000  Climbing Jacksonville Center
Mon 10:07:40 PM 30.8694 -82.5344 North 440 506 34,900 -50 Descending Jacksonville Center
Mon 10:08:40 PM 30.9947 -82.5292 North 435 501 34,900  Level Jacksonville Center
Mon 10:09:40 PM 31.1200 -82.5261 North 441 507 34,900  Level Jacksonville Center
Mon 10:10:40 PM 31.2431 -82.5233 North 441 507 34,900 50 Level Jacksonville Center
Mon 10:11:40 PM 31.3767 -82.5131 North 441 507 35,000 50 Climbing Jacksonville Center
Mon 10:12:40 PM 31.5019 -82.5100 North 441 507 35,000  Level Jacksonville Center
Mon 10:13:40 PM 31.6231 -82.5364 349° North 435 501 35,000  Level Jacksonville Center
Mon 10:14:36 PM 31.7294 -82.5764 342° North 436 502 35,000  Level Atlanta Center
Mon 10:15:36 PM 31.8344 -82.6089 345° North 436 502 35,000  Level Atlanta Center
Mon 10:16:36 PM 31.9517 -82.6461 345° North 436 502 35,000  Level Atlanta Center
Mon 10:17:36 PM 32.0669 -82.6858 344° North 436 502 35,000  Level Atlanta Center
Mon 10:18:36 PM 32.1819 -82.7236 344° North 436 502 35,000  Level Atlanta Center
Mon 10:19:36 PM 32.2972 -82.7636 344° North 431 496 35,000  Level Atlanta Center
Mon 10:20:36 PM 32.4103 -82.7989 345° North 425 489 35,000  Level Atlanta Center
Mon 10:21:36 PM 32.5319 -82.8414 344° North 412 474 35,000  Level Atlanta Center
Mon 10:22:36 PM 32.6367 -82.8769 344° North 412 474 35,000  Level Atlanta Center
Mon 10:23:36 PM 32.7517 -82.9175 343° North 423 487 35,000  Level Atlanta Center
Mon 10:24:36 PM 32.8669 -82.9556 345° North 423 487 35,000  Level Atlanta Center
Mon 10:25:36 PM 32.9778 -82.9939 344° North 418 481 35,000  Level Atlanta Center
Mon 10:26:36 PM 33.0931 -83.0322 344° North 418 481 35,000  Level Atlanta Center
Mon 10:27:36 PM 33.2039 -83.0706 344° North 418 481 35,000  Level Atlanta Center
Mon 10:28:36 PM 33.3169 -83.1067 North 418 481 35,000  Level Atlanta Center
Mon 10:29:36 PM 33.4300 -83.1478 343° North 418 481 35,000  Level Atlanta Center
Mon 10:30:36 PM 33.5386 -83.1864 343° North 418 481 35,000  Level Atlanta Center
Mon 10:31:36 PM 33.6517 -83.2228 345° North 418 481 35,000  Level Atlanta Center
Mon 10:32:36 PM 33.7667 -83.2592 345° North 418 481 35,000  Level Atlanta Center
Mon 10:33:36 PM 33.8797 -83.3006 343° North 418 481 35,000  Level Atlanta Center
Mon 10:34:36 PM 33.9906 -83.3397 344° North 418 481 35,000  Level Atlanta Center
Mon 10:35:36 PM 34.1075 -83.3714 347° North 418 481 35,000  Level Atlanta Center
Mon 10:36:36 PM 34.2206 -83.4033 347° North 418 481 35,000  Level Atlanta Center
Mon 10:37:36 PM 34.3333 -83.4350 347° North 413 475 35,000  Level Atlanta Center
Mon 10:38:36 PM 34.4461 -83.4669 347° North 413 475 35,000  Level Atlanta Center
Mon 10:39:36 PM 34.5694 -83.5014 347° North 413 475 35,000  Level Atlanta Center
Mon 10:40:36 PM 34.6697 -83.5336 345° North 413 475 35,000  Level Atlanta Center
Mon 10:41:36 PM 34.7972 -83.5683 347° North 413 475 35,000  Level Atlanta Center
Mon 10:42:36 PM 34.9100 -83.5981 348° North 420 483 35,000  Level Atlanta Center
Mon 10:43:36 PM 35.0250 -83.6381 344° North 414 476 35,000  Level Atlanta Center
Mon 10:44:36 PM 35.1378 -83.6706 347° North 414 476 35,000  Level Atlanta Center
Mon 10:45:36 PM 35.2483 -83.7006 348° North 414 476 35,000  Level Atlanta Center
Mon 10:46:36 PM 35.3611 -83.7358 346° North 414 476 35,000  Level Atlanta Center
Mon 10:47:36 PM 35.4717 -83.7683 347° North 414 476 35,000  Level Atlanta Center
Mon 10:48:36 PM 35.5844 -83.8014 347° North 414 476 35,000  Level Atlanta Center
Mon 10:49:36 PM 35.6953 -83.8342 346° North 414 476 35,000  Level Atlanta Center
Mon 10:50:36 PM 35.8058 -83.8647 347° North 409 471 35,000  Level Atlanta Center
Mon 10:51:36 PM 35.9164 -83.9028 344° North 414 476 35,000  Level Atlanta Center
Mon 10:52:36 PM 36.0144 -83.9592 335° Northwest 404 465 35,000 -227 Level Atlanta Center
Mon 10:54:41 PM 36.2039 -84.0722 334° Northwest 394 453 34,300 -645 Descending Indianapolis Center
Mon 10:55:42 PM 36.3019 -84.1303 334° Northwest 393 452 33,000 -1,426 Descending Indianapolis Center
Mon 10:56:43 PM 36.4222 -84.2033 334° Northwest 397 457 31,400 -1,317 Descending Indianapolis Center
Mon 10:57:45 PM 36.5269 -84.2669 334° Northwest 408 470 30,300 -1,494 Descending Indianapolis Center
Mon 11:00:48 PM 36.8467 -84.4583 334° Northwest 425 489 25,300 -1,549 Descending Indianapolis Center
Mon 11:01:49 PM 36.9469 -84.5197 334° Northwest 424 488 24,000 -1,220 Descending Indianapolis Center
Mon 11:02:51 PM 37.0547 -84.5847 334° Northwest 415 478 22,800 -1,244 Descending Indianapolis Center
Mon 11:03:11 PM 37.1033 -84.6142 334° Northwest 407 468 22,300 -1,770 Descending FlightAware ADS-B
Mon 11:03:52 PM 37.1575 -84.6478 334° Northwest 414 476 21,000 -2,939 Descending Indianapolis Center
Mon 11:04:00 PM 37.1137 -84.6204 334° Northwest 396 456 19,900 -2,951 Descending FlightAware ADS-B
Mon 11:04:53 PM 37.2567 -84.7083 334° Northwest 402 463 18,000 -1,609 Descending Indianapolis Center
Mon 11:06:00 PM 37.3071 -84.7351 334° Northwest  Level FlightAware Approximate
Mon 11:10:13 PM 37.7298 -85.0560 312° West 283 326 9,900  Level FlightAware ADS-B
Mon 11:11:14 PM 37.7815 -85.1283 312° West 270 311 8,500 -1,500 Descending FlightAware ADS-B
Mon 11:12:25 PM 37.8412 -85.2101 312° West 263 303 6,600 -1,603 Descending FlightAware ADS-B
Mon 11:13:25 PM 37.8870 -85.2814 292° West 260 299 5,000 -1,550 Descending FlightAware ADS-B
Mon 11:14:25 PM 37.9077 -85.3675 286° West 254 292 3,500 -1,016 Descending FlightAware ADS-B
Mon 11:15:29 PM 37.9280 -85.4565 286° West 239 275 2,900 -290 Descending FlightAware ADS-B
Mon 11:16:29 PM 37.9463 -85.5369 286° West 237 273 2,900  Level FlightAware ADS-B
Mon 11:17:29 PM 37.9713 -85.6100 314° West 211 243 2,900  Level FlightAware ADS-B
Mon 11:18:30 PM 38.0091 -85.6602 313° West 183 211 2,900 -99 Level FlightAware ADS-B
Mon 11:19:30 PM 38.0496 -85.6846 345° North 154 177 2,700 -450 Descending FlightAware ADS-B
Mon 11:20:30 PM 38.0874 -85.6971 345° North 119 137 2,000 -716 Descending FlightAware ADS-B
Mon 11:21:19 PM 38.1135 -85.7063 345° North 113 130 1,400 -564 Descending FlightAware ADS-B
Mon 11:22:27 PM 38.1500 -85.7167 208° Southwest 115 132 900 -441 Descending Louisville TRACON
Mon 11:23:00 PM 38.1741 -85.7365 211° Southwest  Level Estimated
Mon 11:24:00 PM 38.1667 -85.7333 208° Southwest  Level FlightAware Approximate
Mon 11:27:00 PM 38.1667 -85.7333 208° Southwest  Level FlightAware Approximate

Login

Don't have an account? Register now (free) for customized features, flight alerts, and more!